Reportages photos

Connexion

10km

10 KM TRAIL CH TYRANNOS TOUR du 24/05/15 (Reelle 10,5)
Rang Dossard Nom Prénom Temps Cat Rang Cat Ecart Ecart Cat Club Vitesse Km/h Temps au Km
1 164 LORIDAN LUDOVIC 00:39:27 SEM 1 00:00:00 00:00:00 COURIR A GRAVELINES 15,970 03:45
2 137 FLIPO QUENTIN 00:40:30 ESM 1 00:01:03 00:00:00 STADE LONGUENESSOIS 15,556 03:51
3 106 GRESSIER FRANCOIS 00:41:33 SEM 2 00:02:06 00:02:06 15,162 03:57
4 180 DRANSART ADRIEN 00:41:33 SEM 3 00:02:06 00:02:06 BERCK OPALE SUD TRIATHLON 15,162 03:57
5 159 HANQUEZ RODRIGUE 00:41:54 SEM 4 00:02:27 00:02:27 CAP OPALE 15,036 03:59
6 197 THESSE DAVID 00:41:58 SEM 5 00:02:31 00:02:31 15,012 04:00
7 136 FLIPO GREGOIRE 00:42:57 V1M 1 00:03:30 00:00:00 STADE LONGUENESSOIS 14,668 04:05
8 139 COLASSE FABIEN 00:43:58 V1M 2 00:04:31 00:01:01 STADE LONGUENESSOIS 14,329 04:11
9 626 LIAGRE SYLVAIN 00:45:12 V1M 3 00:05:45 00:02:15 13,938 04:18
10 138 VERBECKE DAMIEN 00:45:29 V1M 4 00:06:02 00:02:32 STADE LONGUENESSOIS 13,851 04:20
11 122 JOETS MAXENCE 00:45:40 JUM 1 00:06:13 00:00:00 COTE D'OPALE TRIATHLON SAINT-OMER 13,796 04:21
12 200 CARON SEBASTIEN 00:46:29 SEM 6 00:07:02 00:07:02 13,553 04:26
13 191 BOULOIS TANGUY 00:46:51 CAM 1 00:07:24 00:00:00 LONGUENESSE 13,447 04:28
14 154 BEGHIN LUDOVIC 00:46:57 SEM 7 00:07:30 00:07:30 VAFA 13,419 04:28
15 634 WATTEZ MAXIME 00:46:59 SEM 8 00:07:32 00:07:32 13,409 04:28
16 141 SARRAZIN SEBASTIEN 00:47:16 SEM 9 00:07:49 00:07:49 STADE LONGUENESSOIS 13,329 04:30
17 134 MARTEL CYRIL 00:49:11 V1M 5 00:09:44 00:06:14 ES ARQUES 12,809 04:41
18 126 SOHIER SYLVAIN 00:49:11 SEM 10 00:09:44 00:09:44 COURIR A GRAVELINES 12,809 04:41
19 140 FLIPO BAPTISTE 00:49:47 ESM 2 00:10:20 00:09:17 STADE LONGUENESSOIS 12,655 04:44
20 644 ROUTIER MAUD 00:50:29 SEF 1 00:11:02 00:00:00 PATRIOTES CROSS DE GUINES 12,479 04:48
21 144 TOURSEL FREDERIC 00:50:33 V1M 6 00:11:06 00:07:36 CH´TIS COUREURS BAVINCHOVE 12,463 04:49
22 198 PLATTEAU LOUIS 00:50:48 ESM 3 00:11:21 00:10:18 12,402 04:50
23 185 MONTAGNE PAUL 00:50:49 SEM 11 00:11:22 00:11:22 12,398 04:50
24 210 LIBERT DOMINIQUE 00:50:54 V1M 7 00:11:27 00:07:57 COURIR DANS LE LUMBROIS 12,377 04:51
25 133 THIEULEUX SOPHIE 00:51:00 SEF 2 00:11:33 00:00:31 OSA 12,353 04:51
26 912 MUDES DUGAUGUEZ 00:51:02 DUOX 1 00:11:35 00:00:00 12,345 04:52
27 633 LANNOY JEAN YVES 00:51:15 V2M 1 00:11:48 00:00:00 12,293 04:53
28 621 SELLIEZ MATHIAS 00:51:17 SEM 12 00:11:50 00:11:50 JOGGING CLUB LICQUOIS 12,285 04:53
29 195 CASIER GUILLAUME 00:51:37 V1M 8 00:12:10 00:08:40 OSA 12,205 04:55
30 623 PLARD MAXIME 00:51:41 SEM 13 00:12:14 00:12:14 12,190 04:55
31 212 EVRARD DENIS 00:51:53 V1M 9 00:12:26 00:08:56 JOGGING CLUB LICQUOIS 12,143 04:56
32 178 PETITBOIS BENJAMIN 00:51:58 SEM 14 00:12:31 00:12:31 12,123 04:57
33 913 DUPONT DUPONTDECAMP 00:52:00 DUOX 2 00:12:33 00:00:58 12,115 04:57
34 173 DUHAUTOY EMELINE 00:52:06 SEF 3 00:12:39 00:01:37 12,092 04:58
35 625 LEGRAND ANNE 00:52:49 SEF 4 00:13:22 00:02:20 11,928 05:02
36 635 POIRIER FREDERIC 00:53:26 SEM 15 00:13:59 00:13:59 11,790 05:05
37 105 SALOMMEZ FRANCK 00:53:37 V1M 10 00:14:10 00:10:40 RC BLENDECQUES 11,750 05:06
38 179 BODDAERT ROMAIN 00:53:51 SEM 16 00:14:24 00:14:24 11,699 05:08
39 127 GAZULLA JULIEN 00:53:59 SEM 17 00:14:32 00:14:32 11,670 05:08
40 103 BAK LUCILLE 00:54:07 SEF 5 00:14:40 00:03:38 11,642 05:09
41 204 CAPELLE JEAN-FRANCOIS 00:54:17 SEM 18 00:14:50 00:14:50 NON LICENCIE 11,606 05:10
42 115 PHILIPPE DYLAN 00:54:18 CAM 2 00:14:51 00:07:27 11,602 05:10
43 170 POTTIE YANNICK 00:54:20 SEM 19 00:14:53 00:14:53 11,595 05:10
44 642 VERBEKE MARIE LEA 00:54:34 JUF 1 00:15:07 00:00:00 JOGGING CLUB LICQUOIS 11,546 05:12
45 151 JANKIEWICZ STANISLAS 00:54:38 V2M 2 00:15:11 00:03:23 11,531 05:12
46 187 CHAUCHOY OLIVIER 00:54:39 V1M 11 00:15:12 00:11:42 COLEMBERT 11,528 05:12
47 177 LEFEVRE NICOLAS 00:54:58 SEM 20 00:15:31 00:15:31 11,461 05:14
48 145 DRIEUX JEAN 00:55:10 SEM 21 00:15:43 00:15:43 11,420 05:15
49 213 GOLLIOT SEBASTIEN 00:55:11 V1M 12 00:15:44 00:12:14 JOGGING CLUB LICQUOIS 11,416 05:15
50 905 PRUVOST PRUVOST 00:55:18 DUOX 3 00:15:51 00:04:16 BLARINGHEM TRAIL 11,392 05:16
51 903 FINDINIER BERTELOOT 00:55:27 DUOX 4 00:16:00 00:04:25 LNA 11,362 05:17
52 215 DEMILLY SEBASTIEN 00:55:48 SEM 22 00:16:21 00:16:21 JOGGING CLUB LICQUOIS 11,290 05:19
53 206 GILLERE CHRISTOPHE 00:55:53 SEM 23 00:16:26 00:16:26 NON LICENCIE 11,273 05:19
54 919 WIART MERLIER 00:56:18 DUOX 5 00:16:51 00:05:16 11,190 05:22
55 904 EL MORABET ALLOUCHERY 00:56:28 DUOX 6 00:17:01 00:05:26 RC BLENDECQUES 11,157 05:23
56 190 LEVIS JEROME 00:57:07 SEM 24 00:17:40 00:17:40 11,030 05:26
57 214 BOUDRINGHIN CAMILLE 00:57:07 ESF 1 00:17:40 00:00:00 JOGGING CLUB LICQUOIS 11,030 05:26
58 580023 CANIS JEAN BENOIT 00:57:12 SEM 25 00:17:45 00:17:45 11,014 05:27
59 908 LOUCHART DELOHEN 00:57:33 DUOX 7 00:18:06 00:06:31 R.C.BLENDECQUES 10,947 05:29
60 629 VERLET KEVIN 00:58:28 SEM 26 00:19:01 00:19:01 10,775 05:34
61 636 MARQUILLY DOMINIQUE 00:58:34 V3M 1 00:19:07 00:00:00 10,757 05:35
62 643 DEGROOTE MAGGY 00:58:34 SEF 6 00:19:07 00:08:05 NON LICENCIE 10,757 05:35
63 205 LEFEBVRE DAVID 00:58:49 SEM 27 00:19:22 00:19:22 10,711 05:36
64 132 BOLLENGIER LAURENT 00:58:54 V1M 13 00:19:27 00:15:57 BLARINGHEM TRAIL 10,696 05:37
65 917 BLARY SACEPE 00:59:19 DUOX 8 00:19:52 00:08:17 LNA 10,621 05:39
66 916 DELVART DELVART 00:59:53 DUOX 9 00:20:26 00:08:51 10,520 05:42
67 216 DEBARGE STEPHANIE 01:00:13 V1F 1 00:20:46 00:00:00 JOGGING CLUB LICQUOIS 10,462 05:44
68 627 SPECQUE LINDA 01:00:13 V1F 2 00:20:46 00:00:00 10,462 05:44
69 121 LEFEBVRE SEBASTIEN 01:00:20 V1M 14 00:20:53 00:17:23 10,442 05:45
70 142 THIERRY ROMAIN 01:00:37 SEM 28 00:21:10 00:21:10 STADE LONGUENESSOIS 10,393 05:46
71 135 DESMOUDT STEPHANE 01:00:38 V2M 3 00:21:11 00:09:23 STADE LONGUENESSOIS 10,390 05:46
72 111 BOULOIS SYLVAIN 01:01:17 V1M 15 00:21:50 00:18:20 CHTIS COUREUR BAVINCHOVE 10,280 05:50
73 622 LEPERQUE OPHELIE 01:02:08 ESF 2 00:22:41 00:05:01 10,139 05:55
74 631 LAVERSIN MAXENCE 01:02:36 SEM 29 00:23:09 00:23:09 10,064 05:58
75 910 VANDEWAETER VANDEWAETER 01:02:39 DUOX 10 00:23:12 00:11:37 10,056 05:58
76 909 MAGNIEZ LEFEBVRE 01:02:51 DUOX 11 00:23:24 00:11:49 10,024 05:59
77 152 THULLIEZ EDITH 01:02:58 SEF 7 00:23:31 00:12:29 10,005 06:00
78 129 DEBROUCKE RICHARD 01:02:58 SEM 30 00:23:31 00:23:31 RC BLENDECQUES 10,005 06:00
79 1917 GARANCHER COQUEL 01:02:59 DUOX 12 00:23:32 00:11:57 OA HAZEBROUCK 10,003 06:00
80 131 BOCQUET VINCENT 01:03:01 V1M 16 00:23:34 00:20:04 NEANT 9,997 06:00
81 639 NADOCHE BOYER . 01:03:13 DUOX 13 00:23:46 00:12:11 JOGGING CLUB LICQUOIS 9,966 06:01
82 166 JOLY ANTOINE 01:03:28 CAM 3 00:24:01 00:16:37 9,926 06:03
83 918 WIART MERLIER 01:03:40 DUOX 14 00:24:13 00:12:38 9,895 06:04
84 208 COUSIN CAMILLE 01:03:48 SEF 8 00:24:21 00:13:19 E.S. ARQUES 9,875 06:05
85 176 VERGEOT CLAUDE 01:04:16 V3M 2 00:24:49 00:05:42 FOYER RURAL FRESSIN 9,803 06:07
86 211 LECLERCQ RODRIGUE 01:05:33 V1M 17 00:26:06 00:22:36 COURIR DANS LE LUMBROIS 9,611 06:15
87 150 GARENAUX DOMINIQUE 01:06:14 V3M 3 00:26:47 00:07:40 9,512 06:18
88 153 FRANCQ SEBASTIEN 01:06:16 SEM 31 00:26:49 00:26:49 9,507 06:19
89 109 LOUVET SYLVIE 01:06:24 V1F 3 00:26:57 00:06:11 RCB BLENDECQUES 9,488 06:19
90 108 HERAULT CAROLINE 01:06:24 V1F 4 00:26:57 00:06:11 RCB BLENDECQUES 9,488 06:19
91 107 FRADIN FRANCKIE 01:06:24 V1F 5 00:26:57 00:06:11 RCB BLENDECQUES 9,488 06:19
92 123 SAINT-MAXENT JULIE 01:06:55 SEF 9 00:27:28 00:16:26 9,415 06:22
93 124 GRANDSIR SYLVAIN 01:06:55 V1M 18 00:27:28 00:23:58 9,415 06:22
94 104 DESCHILDT BERTRAND 01:07:03 V1M 19 00:27:36 00:24:06 BLARINGHEM TRAIL 9,396 06:23
95 160 BIDAUD JEAN-MARC 01:07:04 V2M 4 00:27:37 00:15:49 BLARINGHEM TRAIL 9,394 06:23
96 181 LETOR CHRISTEL 01:07:07 V1F 6 00:27:40 00:06:54 LOKOMOTIEF RUNNERS 9,387 06:24
97 112 GUILLEMANT MARIE 01:07:07 SEF 10 00:27:40 00:16:38 9,387 06:24
98 196 RANVIN JEAN JACQUES 01:07:36 V1M 20 00:28:09 00:24:39 9,320 06:26
99 207 DE SAINTE MARESVILLE JEAN PHILIPPE 01:07:42 SEM 32 00:28:15 00:28:15 9,306 06:27
100 193 LEFEBVRE DELPHINE 01:07:52 V1F 7 00:28:25 00:07:39 ESA ARQUES 9,283 06:28
101 907 CROGIEZ CROGIEZ 01:07:53 DUOX 15 00:28:26 00:16:51 RCB 9,281 06:28
102 640 DEHONDT DEHONDT 01:08:10 DUOX 16 00:28:43 00:17:08 JOGGING CLUB LICQUOIS 9,242 06:30
103 174 MANZANO MANUEL 01:08:15 SEM 33 00:28:48 00:28:48 9,231 06:30
104 146 TASSART SABINE 01:08:58 V1F 8 00:29:31 00:08:45 9,135 06:34
105 911 LEGRAND ROUSSEL 01:09:47 DUOX 17 00:30:20 00:18:45 RC BLENDECQUES 9,028 06:39
106 914 MAILLARD MAILLARD 01:09:59 DUOX 18 00:30:32 00:18:57 9,002 06:40
107 172 PREDHOMME PIERRE ETIENNE 01:10:05 SEM 34 00:30:38 00:30:38 8,989 06:40
108 171 PREDHOMME SOIZIC 01:10:05 SEF 11 00:30:38 00:19:36 8,989 06:40
109 183 PERSYN STEPHANE 01:10:12 V2M 5 00:30:45 00:18:57 8,974 06:41
110 915 BAILLON SZMALEC 01:10:40 DUOX 19 00:31:13 00:19:38 8,915 06:44
111 646 CROQUELOIS CELINE 01:11:12 SEF 12 00:31:45 00:20:43 PATRIOTES CROSS DE GUINES 8,848 06:47
112 901 GRARDEL GRARDEL 01:11:19 DUOX 20 00:31:52 00:20:17 USL JOGGING 8,834 06:48
113 202 BECUVE MAXIME 01:11:24 SEM 35 00:31:57 00:31:57 PATRIOTES CROSS DE GUINES 8,824 06:48
114 199 MONTAGNE RENAULT 01:11:26 SEM 36 00:31:59 00:31:59 8,819 06:48
115 165 LEFRANCOIS PAMELA 01:12:41 SEF 13 00:33:14 00:22:12 8,668 06:55
116 110 PEYRON ELODIE 01:12:41 SEF 14 00:33:14 00:22:12 8,668 06:55
117 114 PEYRON LAETITIA 01:12:41 SEF 15 00:33:14 00:22:12 8,668 06:55
118 130 LEFRANCOIS VANESSA 01:12:41 SEF 16 00:33:14 00:22:12 8,668 06:55
119 118 FRERE ANNE-SOPHIE 01:12:42 SEF 17 00:33:15 00:22:13 8,666 06:55
120 203 VILLAIN EMELINE 01:12:48 SEF 18 00:33:21 00:22:19 8,654 06:56
121 218 MEGRET DOROTHEE 01:12:53 SEF 19 00:33:26 00:22:24 JOGGING CLUB LICQUOIS 8,644 06:56
122 217 DEJONGHE SABINE 01:12:53 SEF 20 00:33:26 00:22:24 JOGGING CLUB LICQUOIS 8,644 06:56
123 219 MAILLET PEGGY 01:12:53 SEF 21 00:33:26 00:22:24 JOGGING CLUB LICQUOIS 8,644 06:56
124 156 MARIEN CAMILLE 01:13:38 SEF 22 00:34:11 00:23:09 8,556 07:01
125 155 PRINS SANDRINE 01:13:42 SEF 23 00:34:15 00:23:13 8,548 07:01
126 117 MARQUANT DELPHINE 01:13:50 SEF 24 00:34:23 00:23:21 8,533 07:02
127 147 CARON CATHERINE 01:15:02 V2F 1 00:35:35 00:00:00 TERNOIS 8,396 07:09
128 624 BECUVE SANDRINE 01:15:09 V1F 9 00:35:42 00:14:56 8,383 07:09
129 201 HENQUEZ BERNADETTE 01:15:10 V3F 1 00:35:43 00:00:00 PATRIOTES CROSS DE GUINES 8,381 07:10
130 906 COLIN SOUPE 01:15:28 DUOX 21 00:36:01 00:24:26 ASUD 8,348 07:11
131 184 FAUQUET ISABELLE 01:15:56 V1F 10 00:36:29 00:15:43 8,297 07:14
132 149 DECOBERT SAMUEL 01:16:34 V1M 21 00:37:07 00:33:37 OSA AIRE SUR LA LYS 8,228 07:18
133 182 HAMY DANY 01:16:48 V1F 11 00:37:21 00:16:35 8,203 07:19
134 158 BARBE STEPHANIE 01:20:18 SEF 25 00:40:51 00:29:49 7,846 07:39
135 169 SUEUR MELANIE 01:20:18 SEF 26 00:40:51 00:29:49 SPORT EVASION DES 2 CAPS 7,846 07:39
136 157 KOWALEWSKI DESIREE 01:20:45 SEF 27 00:41:18 00:30:16 7,802 07:41
137 148 DECOBERT MARJORIE 01:21:25 V1F 12 00:41:58 00:21:12 OSA AIRE SUR LA LYS 7,738 07:45
138 188 DE BUF PATRICK 01:22:31 V3M 4 00:43:04 00:23:57 FREVENT OLYMPIQUE CLUB 7,635 07:52
139 902 BAILLON BAILLON 01:25:19 DUOX 22 00:45:52 00:34:17 7,384 08:08
140 186 MAHIEUX MARYSE 01:25:57 V2F 2 00:46:30 00:10:55 SANS 7,330 08:11
141 538 POMART JEAN FRANCOIS 01:55:34 V1M 22 01:16:07 01:12:37 AS HESDINOIS 5,451 11:00
142 645 COQUART ADRIEN 02:08:36 SEM 37 01:29:09 01:29:09 PATRIOTES CROSS DE GUINES 4,899 12:15

Novembre 2017
Lun Mar Mer Jeu Ven Sam Dim
1
2
3
4
5
6
7
8
9
10
11
12
13
14
15
16
17
18
19
20
21
22
23
24
25
27
28
29
30